sensor_id;sensor_type;location;lat;lon;timestamp;temperature;humidity
13205;DHT22;6667;52.634;9.226;2022-07-11T07:06:09;17.80;1.00
13205;DHT22;6667;52.634;9.226;2022-07-11T07:08:35;17.80;1.00
13205;DHT22;6667;52.634;9.226;2022-07-11T07:11:02;17.80;1.00
13205;DHT22;6667;52.634;9.226;2022-07-11T07:13:29;17.80;1.00
13205;DHT22;6667;52.634;9.226;2022-07-11T07:15:56;17.80;1.00
13205;DHT22;6667;52.634;9.226;2022-07-11T07:18:23;17.50;1.00
13205;DHT22;6667;52.634;9.226;2022-07-11T07:20:50;17.40;1.00
13205;DHT22;6667;52.634;9.226;2022-07-11T07:23:19;17.50;99.90
13205;DHT22;6667;52.634;9.226;2022-07-11T07:25:45;17.40;99.90
13205;DHT22;6667;52.634;9.226;2022-07-11T07:28:12;17.40;99.90
13205;DHT22;6667;52.634;9.226;2022-07-11T07:30:39;17.70;1.00
13205;DHT22;6667;52.634;9.226;2022-07-11T07:33:05;17.70;1.00
13205;DHT22;6667;52.634;9.226;2022-07-11T07:35:32;17.70;1.00
13205;DHT22;6667;52.634;9.226;2022-07-11T07:37:58;17.50;1.00
13205;DHT22;6667;52.634;9.226;2022-07-11T07:40:27;17.50;99.90
13205;DHT22;6667;52.634;9.226;2022-07-11T07:42:54;17.60;1.00
13205;DHT22;6667;52.634;9.226;2022-07-11T07:45:21;17.70;1.00
13205;DHT22;6667;52.634;9.226;2022-07-11T07:47:47;17.70;99.90
13205;DHT22;6667;52.634;9.226;2022-07-11T07:50:14;17.80;1.00
13205;DHT22;6667;52.634;9.226;2022-07-11T07:52:41;17.70;1.00
13205;DHT22;6667;52.634;9.226;2022-07-11T07:55:08;17.80;1.00
13205;DHT22;6667;52.634;9.226;2022-07-11T07:57:36;18.00;99.90
13205;DHT22;6667;52.634;9.226;2022-07-11T08:00:03;18.00;99.90
13205;DHT22;6667;52.634;9.226;2022-07-11T08:02:47;18.10;99.90
13205;DHT22;6667;52.634;9.226;2022-07-11T08:05:16;18.50;99.90
13205;DHT22;6667;52.634;9.226;2022-07-11T08:07:42;18.50;3.80
13205;DHT22;6667;52.634;9.226;2022-07-11T08:10:10;18.50;47.50
13205;DHT22;6667;52.634;9.226;2022-07-11T08:12:38;18.30;1.00
13205;DHT22;6667;52.634;9.226;2022-07-11T08:15:06;18.10;99.90
13205;DHT22;6667;52.634;9.226;2022-07-11T08:17:32;18.10;99.90
13205;DHT22;6667;52.634;9.226;2022-07-11T08:19:59;18.10;99.90
13205;DHT22;6667;52.634;9.226;2022-07-11T08:22:26;18.10;99.90
13205;DHT22;6667;52.634;9.226;2022-07-11T08:24:53;18.20;99.90
13205;DHT22;6667;52.634;9.226;2022-07-11T08:27:19;18.20;99.90
13205;DHT22;6667;52.634;9.226;2022-07-11T08:29:47;18.10;99.90
13205;DHT22;6667;52.634;9.226;2022-07-11T08:32:14;18.20;1.00
13205;DHT22;6667;52.634;9.226;2022-07-11T08:34:41;18.20;99.90
13205;DHT22;6667;52.634;9.226;2022-07-11T08:37:07;18.10;1.00
13205;DHT22;6667;52.634;9.226;2022-07-11T08:39:34;18.20;1.00
13205;DHT22;6667;52.634;9.226;2022-07-11T08:42:00;18.20;99.90
13205;DHT22;6667;52.634;9.226;2022-07-11T08:44:28;18.00;99.90
13205;DHT22;6667;52.634;9.226;2022-07-11T08:46:56;18.20;99.90
13205;DHT22;6667;52.634;9.226;2022-07-11T08:49:24;18.30;99.90
13205;DHT22;6667;52.634;9.226;2022-07-11T08:51:51;18.40;99.90
13205;DHT22;6667;52.634;9.226;2022-07-11T08:54:18;18.60;99.90
13205;DHT22;6667;52.634;9.226;2022-07-11T08:56:45;18.90;18.00
13205;DHT22;6667;52.634;9.226;2022-07-11T08:59:14;19.00;1.00
13205;DHT22;6667;52.634;9.226;2022-07-11T09:01:45;19.30;1.00
13205;DHT22;6667;52.634;9.226;2022-07-11T09:04:14;19.80;1.00
13205;DHT22;6667;52.634;9.226;2022-07-11T09:06:41;20.00;1.00
13205;DHT22;6667;52.634;9.226;2022-07-11T09:09:08;20.30;1.00
13205;DHT22;6667;52.634;9.226;2022-07-11T09:11:51;20.50;1.00
13205;DHT22;6667;52.634;9.226;2022-07-11T09:14:22;20.60;99.90
13205;DHT22;6667;52.634;9.226;2022-07-11T09:16:54;20.50;1.00
13205;DHT22;6667;52.634;9.226;2022-07-11T09:19:23;20.30;1.00
13205;DHT22;6667;52.634;9.226;2022-07-11T09:22:04;19.90;1.00
13205;DHT22;6667;52.634;9.226;2022-07-11T09:24:53;20.00;1.00
13205;DHT22;6667;52.634;9.226;2022-07-11T09:27:45;19.90;1.00
13205;DHT22;6667;52.634;9.226;2022-07-11T09:30:18;19.90;1.00
13205;DHT22;6667;52.634;9.226;2022-07-11T09:32:52;19.80;1.00
13205;DHT22;6667;52.634;9.226;2022-07-11T09:35:20;19.80;1.00
13205;DHT22;6667;52.634;9.226;2022-07-11T09:37:47;19.80;19.70
13205;DHT22;6667;52.634;9.226;2022-07-11T09:40:15;19.80;1.00
13205;DHT22;6667;52.634;9.226;2022-07-11T09:42:46;19.90;99.90
13205;DHT22;6667;52.634;9.226;2022-07-11T09:45:14;19.80;99.90
13205;DHT22;6667;52.634;9.226;2022-07-11T09:47:45;19.80;1.00
13205;DHT22;6667;52.634;9.226;2022-07-11T09:50:12;19.70;1.00
13205;DHT22;6667;52.634;9.226;2022-07-11T09:52:44;19.60;99.90
13205;DHT22;6667;52.634;9.226;2022-07-11T09:55:24;19.40;99.90
13205;DHT22;6667;52.634;9.226;2022-07-11T09:57:51;19.20;99.90
13205;DHT22;6667;52.634;9.226;2022-07-11T10:00:18;19.20;99.90
13205;DHT22;6667;52.634;9.226;2022-07-11T10:02:45;19.50;99.90
13205;DHT22;6667;52.634;9.226;2022-07-11T10:05:12;19.60;99.90
13205;DHT22;6667;52.634;9.226;2022-07-11T10:07:39;19.60;99.90
13205;DHT22;6667;52.634;9.226;2022-07-11T10:10:08;19.70;99.90
13205;DHT22;6667;52.634;9.226;2022-07-11T10:12:35;20.00;99.90
13205;DHT22;6667;52.634;9.226;2022-07-11T10:15:04;20.10;99.90
13205;DHT22;6667;52.634;9.226;2022-07-11T10:17:39;20.30;99.90
13205;DHT22;6667;52.634;9.226;2022-07-11T10:20:10;20.10;99.90
13205;DHT22;6667;52.634;9.226;2022-07-11T10:22:42;20.00;99.90
13205;DHT22;6667;52.634;9.226;2022-07-11T10:25:18;20.00;99.90
13205;DHT22;6667;52.634;9.226;2022-07-11T10:27:57;19.70;99.90
13205;DHT22;6667;52.634;9.226;2022-07-11T10:30:42;19.40;99.90
13205;DHT22;6667;52.634;9.226;2022-07-11T10:33:08;19.00;99.90
13205;DHT22;6667;52.634;9.226;2022-07-11T10:35:35;19.00;99.90
13205;DHT22;6667;52.634;9.226;2022-07-11T10:38:05;19.20;99.90
13205;DHT22;6667;52.634;9.226;2022-07-11T10:40:47;19.50;99.90
13205;DHT22;6667;52.634;9.226;2022-07-11T10:43:15;19.50;99.90
13205;DHT22;6667;52.634;9.226;2022-07-11T10:45:56;19.70;99.90
13205;DHT22;6667;52.634;9.226;2022-07-11T10:48:23;20.00;99.90
13205;DHT22;6667;52.634;9.226;2022-07-11T10:50:54;19.80;99.90
13205;DHT22;6667;52.634;9.226;2022-07-11T10:53:31;19.80;99.90
13205;DHT22;6667;52.634;9.226;2022-07-11T10:56:05;20.00;99.90
13205;DHT22;6667;52.634;9.226;2022-07-11T10:58:41;20.30;99.90
13205;DHT22;6667;52.634;9.226;2022-07-11T11:01:08;20.50;99.90
13205;DHT22;6667;52.634;9.226;2022-07-11T11:03:36;20.40;99.90
13205;DHT22;6667;52.634;9.226;2022-07-11T11:06:02;20.80;99.90
13205;DHT22;6667;52.634;9.226;2022-07-11T11:08:45;21.00;99.90
13205;DHT22;6667;52.634;9.226;2022-07-11T11:11:35;20.80;99.90
13205;DHT22;6667;52.634;9.226;2022-07-11T11:14:23;20.40;99.90
13205;DHT22;6667;52.634;9.226;2022-07-11T11:16:52;19.80;99.90
13205;DHT22;6667;52.634;9.226;2022-07-11T11:19:53;19.60;99.90
13205;DHT22;6667;52.634;9.226;2022-07-11T11:22:22;19.60;99.90
13205;DHT22;6667;52.634;9.226;2022-07-11T11:24:50;19.60;99.90
13205;DHT22;6667;52.634;9.226;2022-07-11T11:27:20;19.80;99.90
13205;DHT22;6667;52.634;9.226;2022-07-11T11:29:51;19.70;99.90
13205;DHT22;6667;52.634;9.226;2022-07-11T11:32:18;19.70;99.90
13205;DHT22;6667;52.634;9.226;2022-07-11T11:34:46;19.90;99.90
13205;DHT22;6667;52.634;9.226;2022-07-11T11:37:15;19.80;99.90
13205;DHT22;6667;52.634;9.226;2022-07-11T11:39:43;20.00;99.90
13205;DHT22;6667;52.634;9.226;2022-07-11T11:42:12;20.20;99.90
13205;DHT22;6667;52.634;9.226;2022-07-11T11:44:54;20.40;99.90
13205;DHT22;6667;52.634;9.226;2022-07-11T11:47:21;20.70;99.90
13205;DHT22;6667;52.634;9.226;2022-07-11T11:49:49;21.00;99.90
13205;DHT22;6667;52.634;9.226;2022-07-11T11:52:17;21.00;99.90
13205;DHT22;6667;52.634;9.226;2022-07-11T11:54:45;20.80;99.90
13205;DHT22;6667;52.634;9.226;2022-07-11T11:57:16;20.80;99.90
13205;DHT22;6667;52.634;9.226;2022-07-11T11:59:43;20.80;99.90
13205;DHT22;6667;52.634;9.226;2022-07-11T12:02:11;20.80;99.90
13205;DHT22;6667;52.634;9.226;2022-07-11T12:04:38;20.90;99.90
13205;DHT22;6667;52.634;9.226;2022-07-11T12:07:05;20.90;99.90
13205;DHT22;6667;52.634;9.226;2022-07-11T12:09:31;21.10;99.90
13205;DHT22;6667;52.634;9.226;2022-07-11T12:12:17;20.60;99.90
13205;DHT22;6667;52.634;9.226;2022-07-11T12:15:02;20.50;99.90
13205;DHT22;6667;52.634;9.226;2022-07-11T12:17:31;20.10;99.90
13205;DHT22;6667;52.634;9.226;2022-07-11T12:19:57;20.00;99.90
13205;DHT22;6667;52.634;9.226;2022-07-11T12:22:24;20.10;99.90
13205;DHT22;6667;52.634;9.226;2022-07-11T12:24:52;20.10;99.90
13205;DHT22;6667;52.634;9.226;2022-07-11T12:27:20;20.00;99.90
13205;DHT22;6667;52.634;9.226;2022-07-11T12:29:47;19.80;99.90
13205;DHT22;6667;52.634;9.226;2022-07-11T12:32:16;19.70;99.90
13205;DHT22;6667;52.634;9.226;2022-07-11T12:34:46;19.80;99.90
13205;DHT22;6667;52.634;9.226;2022-07-11T12:37:14;19.90;99.90
13205;DHT22;6667;52.634;9.226;2022-07-11T12:39:47;20.20;99.90
13205;DHT22;6667;52.634;9.226;2022-07-11T12:42:24;20.20;99.90
13205;DHT22;6667;52.634;9.226;2022-07-11T12:44:55;20.40;99.90
13205;DHT22;6667;52.634;9.226;2022-07-11T12:47:26;20.90;99.90
13205;DHT22;6667;52.634;9.226;2022-07-11T12:49:54;21.10;99.90
13205;DHT22;6667;52.634;9.226;2022-07-11T12:52:21;21.20;99.90
13205;DHT22;6667;52.634;9.226;2022-07-11T12:54:48;21.30;99.90
13205;DHT22;6667;52.634;9.226;2022-07-11T12:57:16;21.10;99.90
13205;DHT22;6667;52.634;9.226;2022-07-11T12:59:43;20.60;99.90
13205;DHT22;6667;52.634;9.226;2022-07-11T13:02:11;20.40;99.90
13205;DHT22;6667;52.634;9.226;2022-07-11T13:04:40;20.10;99.90
13205;DHT22;6667;52.634;9.226;2022-07-11T13:07:28;20.10;99.90
13205;DHT22;6667;52.634;9.226;2022-07-11T13:10:14;20.20;99.90
13205;DHT22;6667;52.634;9.226;2022-07-11T13:12:42;20.30;99.90
13205;DHT22;6667;52.634;9.226;2022-07-11T13:15:10;20.40;99.90
13205;DHT22;6667;52.634;9.226;2022-07-11T13:17:38;20.10;99.90
13205;DHT22;6667;52.634;9.226;2022-07-11T13:20:07;20.10;99.90
13205;DHT22;6667;52.634;9.226;2022-07-11T13:22:36;19.90;99.90
13205;DHT22;6667;52.634;9.226;2022-07-11T13:25:03;20.20;99.90
13205;DHT22;6667;52.634;9.226;2022-07-11T13:27:30;20.20;99.90
13205;DHT22;6667;52.634;9.226;2022-07-11T13:29:57;20.50;99.90
13205;DHT22;6667;52.634;9.226;2022-07-11T13:32:24;20.70;99.90
13205;DHT22;6667;52.634;9.226;2022-07-11T13:34:51;21.00;99.90
13205;DHT22;6667;52.634;9.226;2022-07-11T13:37:18;21.20;99.90
13205;DHT22;6667;52.634;9.226;2022-07-11T13:39:46;21.40;99.90
13205;DHT22;6667;52.634;9.226;2022-07-11T13:42:12;21.40;99.90
13205;DHT22;6667;52.634;9.226;2022-07-11T13:44:39;21.30;99.90
13205;DHT22;6667;52.634;9.226;2022-07-11T13:47:05;21.00;99.90
13205;DHT22;6667;52.634;9.226;2022-07-11T13:49:32;21.00;99.90
13205;DHT22;6667;52.634;9.226;2022-07-11T13:51:59;20.80;99.90
13205;DHT22;6667;52.634;9.226;2022-07-11T13:54:25;20.70;99.90
13205;DHT22;6667;52.634;9.226;2022-07-11T13:56:53;20.60;99.90
13205;DHT22;6667;52.634;9.226;2022-07-11T13:59:20;20.50;99.90
13205;DHT22;6667;52.634;9.226;2022-07-11T14:01:46;20.20;99.90
13205;DHT22;6667;52.634;9.226;2022-07-11T14:04:13;20.10;99.90
13205;DHT22;6667;52.634;9.226;2022-07-11T14:06:40;20.00;99.90
13205;DHT22;6667;52.634;9.226;2022-07-11T14:09:07;19.80;99.90
13205;DHT22;6667;52.634;9.226;2022-07-11T14:11:33;19.90;99.90
13205;DHT22;6667;52.634;9.226;2022-07-11T14:14:02;20.00;99.90
13205;DHT22;6667;52.634;9.226;2022-07-11T14:16:28;20.00;99.90
13205;DHT22;6667;52.634;9.226;2022-07-11T14:18:56;19.90;99.90
13205;DHT22;6667;52.634;9.226;2022-07-11T14:21:26;19.90;99.90
13205;DHT22;6667;52.634;9.226;2022-07-11T14:23:52;20.10;99.90
13205;DHT22;6667;52.634;9.226;2022-07-11T14:26:19;20.20;99.90
13205;DHT22;6667;52.634;9.226;2022-07-11T14:28:45;20.30;99.90
13205;DHT22;6667;52.634;9.226;2022-07-11T14:31:15;20.30;99.90
13205;DHT22;6667;52.634;9.226;2022-07-11T14:33:42;20.60;99.90
13205;DHT22;6667;52.634;9.226;2022-07-11T14:36:08;20.60;99.90
13205;DHT22;6667;52.634;9.226;2022-07-11T14:38:35;20.80;99.90
13205;DHT22;6667;52.634;9.226;2022-07-11T14:41:02;20.70;99.90
13205;DHT22;6667;52.634;9.226;2022-07-11T14:43:28;20.70;99.90
13205;DHT22;6667;52.634;9.226;2022-07-11T14:45:56;20.60;99.90
13205;DHT22;6667;52.634;9.226;2022-07-11T14:48:24;20.90;99.90
13205;DHT22;6667;52.634;9.226;2022-07-11T14:50:51;21.00;99.90
13205;DHT22;6667;52.634;9.226;2022-07-11T14:53:17;21.00;99.90
13205;DHT22;6667;52.634;9.226;2022-07-11T14:55:44;21.10;99.90
13205;DHT22;6667;52.634;9.226;2022-07-11T14:58:10;21.10;99.90
13205;DHT22;6667;52.634;9.226;2022-07-11T15:00:37;21.20;99.90
13205;DHT22;6667;52.634;9.226;2022-07-11T15:03:04;21.30;99.90
13205;DHT22;6667;52.634;9.226;2022-07-11T15:05:50;21.40;99.90
13205;DHT22;6667;52.634;9.226;2022-07-11T15:08:17;21.50;99.90
13205;DHT22;6667;52.634;9.226;2022-07-11T15:11:01;21.40;99.90
13205;DHT22;6667;52.634;9.226;2022-07-11T15:13:45;21.40;99.90
13205;DHT22;6667;52.634;9.226;2022-07-11T15:16:12;21.40;99.90
13205;DHT22;6667;52.634;9.226;2022-07-11T15:18:39;21.30;99.90
13205;DHT22;6667;52.634;9.226;2022-07-11T15:21:07;21.20;99.90
13205;DHT22;6667;52.634;9.226;2022-07-11T15:23:34;21.00;99.90
13205;DHT22;6667;52.634;9.226;2022-07-11T15:26:01;21.10;99.90
13205;DHT22;6667;52.634;9.226;2022-07-11T15:28:27;21.20;99.90
13205;DHT22;6667;52.634;9.226;2022-07-11T15:30:54;21.30;99.90
13205;DHT22;6667;52.634;9.226;2022-07-11T15:33:21;21.30;99.90
13205;DHT22;6667;52.634;9.226;2022-07-11T15:35:49;21.30;99.90
13205;DHT22;6667;52.634;9.226;2022-07-11T15:38:17;21.20;99.90
13205;DHT22;6667;52.634;9.226;2022-07-11T15:40:43;21.20;99.90
13205;DHT22;6667;52.634;9.226;2022-07-11T15:43:10;21.00;99.90
13205;DHT22;6667;52.634;9.226;2022-07-11T15:45:37;21.20;99.90
13205;DHT22;6667;52.634;9.226;2022-07-11T15:48:04;21.00;99.90
13205;DHT22;6667;52.634;9.226;2022-07-11T15:50:31;20.90;99.90
13205;DHT22;6667;52.634;9.226;2022-07-11T15:52:58;20.80;99.90
13205;DHT22;6667;52.634;9.226;2022-07-11T15:55:27;20.80;99.90
13205;DHT22;6667;52.634;9.226;2022-07-11T15:57:54;21.00;99.90
13205;DHT22;6667;52.634;9.226;2022-07-11T16:00:20;21.10;99.90
13205;DHT22;6667;52.634;9.226;2022-07-11T16:02:47;20.80;99.90
13205;DHT22;6667;52.634;9.226;2022-07-11T16:05:14;20.80;99.90
13205;DHT22;6667;52.634;9.226;2022-07-11T16:07:42;20.70;99.90
13205;DHT22;6667;52.634;9.226;2022-07-11T16:10:09;20.90;99.90
13205;DHT22;6667;52.634;9.226;2022-07-11T16:12:37;21.00;99.90
13205;DHT22;6667;52.634;9.226;2022-07-11T16:15:04;21.00;99.90
13205;DHT22;6667;52.634;9.226;2022-07-11T16:17:31;21.10;99.90
13205;DHT22;6667;52.634;9.226;2022-07-11T16:19:58;21.00;99.90
13205;DHT22;6667;52.634;9.226;2022-07-11T16:22:26;21.00;99.90
13205;DHT22;6667;52.634;9.226;2022-07-11T16:24:52;21.00;99.90
13205;DHT22;6667;52.634;9.226;2022-07-11T16:27:19;20.70;99.90
13205;DHT22;6667;52.634;9.226;2022-07-11T16:29:47;20.80;99.90
13205;DHT22;6667;52.634;9.226;2022-07-11T16:32:14;20.70;99.90
13205;DHT22;6667;52.634;9.226;2022-07-11T16:34:41;20.70;99.90
13205;DHT22;6667;52.634;9.226;2022-07-11T16:37:08;20.80;99.90
13205;DHT22;6667;52.634;9.226;2022-07-11T16:39:35;20.70;99.90
13205;DHT22;6667;52.634;9.226;2022-07-11T16:42:19;20.70;99.90
13205;DHT22;6667;52.634;9.226;2022-07-11T16:45:05;20.60;99.90
13205;DHT22;6667;52.634;9.226;2022-07-11T16:47:32;20.70;99.90
13205;DHT22;6667;52.634;9.226;2022-07-11T16:49:59;20.60;99.90
13205;DHT22;6667;52.634;9.226;2022-07-11T16:52:26;20.60;99.90
13205;DHT22;6667;52.634;9.226;2022-07-11T16:54:53;20.50;99.90
13205;DHT22;6667;52.634;9.226;2022-07-11T16:57:20;20.30;99.90
13205;DHT22;6667;52.634;9.226;2022-07-11T16:59:47;20.30;99.90
13205;DHT22;6667;52.634;9.226;2022-07-11T17:02:15;20.40;99.90
13205;DHT22;6667;52.634;9.226;2022-07-11T17:04:42;20.40;99.90
13205;DHT22;6667;52.634;9.226;2022-07-11T17:07:09;20.30;99.90
13205;DHT22;6667;52.634;9.226;2022-07-11T17:09:36;20.20;99.90
13205;DHT22;6667;52.634;9.226;2022-07-11T17:12:04;20.10;99.90
13205;DHT22;6667;52.634;9.226;2022-07-11T17:14:31;20.20;99.90
13205;DHT22;6667;52.634;9.226;2022-07-11T17:16:58;20.20;99.90
13205;DHT22;6667;52.634;9.226;2022-07-11T17:19:26;20.10;99.90
13205;DHT22;6667;52.634;9.226;2022-07-11T17:21:53;20.10;99.90
13205;DHT22;6667;52.634;9.226;2022-07-11T17:24:20;20.10;99.90
13205;DHT22;6667;52.634;9.226;2022-07-11T17:26:47;20.20;99.90
13205;DHT22;6667;52.634;9.226;2022-07-11T17:29:14;20.20;99.90
13205;DHT22;6667;52.634;9.226;2022-07-11T17:31:41;20.20;99.90
13205;DHT22;6667;52.634;9.226;2022-07-11T17:34:11;20.10;99.90
13205;DHT22;6667;52.634;9.226;2022-07-11T17:36:39;20.10;99.90
13205;DHT22;6667;52.634;9.226;2022-07-11T17:39:07;20.00;99.90
13205;DHT22;6667;52.634;9.226;2022-07-11T17:41:34;20.00;99.90
13205;DHT22;6667;52.634;9.226;2022-07-11T17:44:01;19.90;99.90
13205;DHT22;6667;52.634;9.226;2022-07-11T17:46:28;20.00;99.90
13205;DHT22;6667;52.634;9.226;2022-07-11T17:48:55;19.90;99.90
13205;DHT22;6667;52.634;9.226;2022-07-11T17:51:22;20.00;99.90
13205;DHT22;6667;52.634;9.226;2022-07-11T17:53:50;20.00;99.90
13205;DHT22;6667;52.634;9.226;2022-07-11T17:56:17;20.00;99.90
13205;DHT22;6667;52.634;9.226;2022-07-11T17:58:44;19.90;99.90
13205;DHT22;6667;52.634;9.226;2022-07-11T18:01:11;19.90;99.90
13205;DHT22;6667;52.634;9.226;2022-07-11T18:03:38;19.80;99.90
13205;DHT22;6667;52.634;9.226;2022-07-11T18:06:05;19.80;99.90
13205;DHT22;6667;52.634;9.226;2022-07-11T18:08:32;19.90;99.90
13205;DHT22;6667;52.634;9.226;2022-07-11T18:11:00;19.80;99.90
13205;DHT22;6667;52.634;9.226;2022-07-11T18:13:27;19.80;99.90
13205;DHT22;6667;52.634;9.226;2022-07-11T18:15:54;19.80;99.90
13205;DHT22;6667;52.634;9.226;2022-07-11T18:18:21;19.80;99.90
13205;DHT22;6667;52.634;9.226;2022-07-11T18:20:48;19.60;99.90
13205;DHT22;6667;52.634;9.226;2022-07-11T18:23:15;19.60;99.90
13205;DHT22;6667;52.634;9.226;2022-07-11T18:25:42;19.60;99.90
13205;DHT22;6667;52.634;9.226;2022-07-11T18:28:10;19.50;99.90
13205;DHT22;6667;52.634;9.226;2022-07-11T18:30:37;19.60;99.90
13205;DHT22;6667;52.634;9.226;2022-07-11T18:33:03;19.50;99.90
13205;DHT22;6667;52.634;9.226;2022-07-11T18:35:30;19.50;99.90
13205;DHT22;6667;52.634;9.226;2022-07-11T18:37:57;19.50;99.90
13205;DHT22;6667;52.634;9.226;2022-07-11T18:40:24;19.50;99.90
13205;DHT22;6667;52.634;9.226;2022-07-11T18:43:09;19.40;99.90
13205;DHT22;6667;52.634;9.226;2022-07-11T18:45:36;19.40;99.90
13205;DHT22;6667;52.634;9.226;2022-07-11T18:48:03;19.40;99.90
13205;DHT22;6667;52.634;9.226;2022-07-11T18:50:30;19.40;99.90
13205;DHT22;6667;52.634;9.226;2022-07-11T18:52:57;19.30;99.90
13205;DHT22;6667;52.634;9.226;2022-07-11T18:55:25;19.20;99.90
13205;DHT22;6667;52.634;9.226;2022-07-11T18:57:52;19.20;99.90
13205;DHT22;6667;52.634;9.226;2022-07-11T19:00:21;19.20;99.90
13205;DHT22;6667;52.634;9.226;2022-07-11T19:02:48;19.10;99.90
13205;DHT22;6667;52.634;9.226;2022-07-11T19:05:16;19.00;99.90
13205;DHT22;6667;52.634;9.226;2022-07-11T19:07:43;19.00;99.90
13205;DHT22;6667;52.634;9.226;2022-07-11T19:10:10;19.00;99.90
13205;DHT22;6667;52.634;9.226;2022-07-11T19:12:36;19.00;99.90
13205;DHT22;6667;52.634;9.226;2022-07-11T19:15:04;19.00;99.90
13205;DHT22;6667;52.634;9.226;2022-07-11T19:17:33;19.00;99.90
13205;DHT22;6667;52.634;9.226;2022-07-11T19:19:59;18.90;99.90
13205;DHT22;6667;52.634;9.226;2022-07-11T19:22:26;19.00;99.90
13205;DHT22;6667;52.634;9.226;2022-07-11T19:24:55;19.00;99.90
13205;DHT22;6667;52.634;9.226;2022-07-11T19:27:22;19.00;99.90
13205;DHT22;6667;52.634;9.226;2022-07-11T19:29:48;18.90;99.90
13205;DHT22;6667;52.634;9.226;2022-07-11T19:32:15;18.90;99.90
13205;DHT22;6667;52.634;9.226;2022-07-11T19:34:43;18.90;99.90
13205;DHT22;6667;52.634;9.226;2022-07-11T19:37:10;18.80;99.90
13205;DHT22;6667;52.634;9.226;2022-07-11T19:39:37;18.80;99.90
13205;DHT22;6667;52.634;9.226;2022-07-11T19:42:04;18.70;99.90
13205;DHT22;6667;52.634;9.226;2022-07-11T19:44:31;18.60;99.90
13205;DHT22;6667;52.634;9.226;2022-07-11T19:46:58;18.60;99.90
13205;DHT22;6667;52.634;9.226;2022-07-11T19:49:25;18.60;99.90
13205;DHT22;6667;52.634;9.226;2022-07-11T19:51:53;18.60;99.90
13205;DHT22;6667;52.634;9.226;2022-07-11T19:54:20;18.50;99.90
13205;DHT22;6667;52.634;9.226;2022-07-11T19:57:04;18.50;99.90
13205;DHT22;6667;52.634;9.226;2022-07-11T19:59:45;18.40;99.90
13205;DHT22;6667;52.634;9.226;2022-07-11T20:02:12;18.40;99.90
13205;DHT22;6667;52.634;9.226;2022-07-11T20:04:39;18.30;99.90
13205;DHT22;6667;52.634;9.226;2022-07-11T20:07:07;18.20;99.90
13205;DHT22;6667;52.634;9.226;2022-07-11T20:09:34;18.10;99.90
13205;DHT22;6667;52.634;9.226;2022-07-11T20:12:01;18.10;99.90
13205;DHT22;6667;52.634;9.226;2022-07-11T20:14:28;18.00;99.90
13205;DHT22;6667;52.634;9.226;2022-07-11T20:16:56;17.90;99.90
13205;DHT22;6667;52.634;9.226;2022-07-11T20:19:23;17.90;99.90
13205;DHT22;6667;52.634;9.226;2022-07-11T20:21:51;17.90;99.90
13205;DHT22;6667;52.634;9.226;2022-07-11T20:24:19;17.80;99.90
13205;DHT22;6667;52.634;9.226;2022-07-11T20:26:47;17.80;99.90
13205;DHT22;6667;52.634;9.226;2022-07-11T20:29:14;17.80;99.90
13205;DHT22;6667;52.634;9.226;2022-07-11T20:31:41;17.80;99.90
13205;DHT22;6667;52.634;9.226;2022-07-11T20:34:08;17.80;99.90
13205;DHT22;6667;52.634;9.226;2022-07-11T20:36:36;17.70;1.00
13205;DHT22;6667;52.634;9.226;2022-07-11T20:39:03;17.70;99.90
13205;DHT22;6667;52.634;9.226;2022-07-11T20:41:31;17.70;99.90
13205;DHT22;6667;52.634;9.226;2022-07-11T20:43:58;17.70;99.90
13205;DHT22;6667;52.634;9.226;2022-07-11T20:46:26;17.70;99.90
13205;DHT22;6667;52.634;9.226;2022-07-11T20:48:53;17.60;99.90
13205;DHT22;6667;52.634;9.226;2022-07-11T20:51:20;17.60;1.00
13205;DHT22;6667;52.634;9.226;2022-07-11T20:53:48;17.50;99.90
13205;DHT22;6667;52.634;9.226;2022-07-11T20:56:15;17.40;99.90
13205;DHT22;6667;52.634;9.226;2022-07-11T20:58:44;17.30;99.90
13205;DHT22;6667;52.634;9.226;2022-07-11T21:01:11;17.30;99.90
13205;DHT22;6667;52.634;9.226;2022-07-11T21:03:38;17.20;99.90
13205;DHT22;6667;52.634;9.226;2022-07-11T21:06:05;17.20;99.90
13205;DHT22;6667;52.634;9.226;2022-07-11T21:08:32;17.20;99.90
13205;DHT22;6667;52.634;9.226;2022-07-11T21:10:58;17.20;99.90
13205;DHT22;6667;52.634;9.226;2022-07-11T21:13:25;17.20;99.90
13205;DHT22;6667;52.634;9.226;2022-07-11T21:15:53;17.10;99.90
13205;DHT22;6667;52.634;9.226;2022-07-11T21:18:20;17.20;99.90
13205;DHT22;6667;52.634;9.226;2022-07-11T21:20:47;17.20;99.90
13205;DHT22;6667;52.634;9.226;2022-07-11T21:23:13;17.10;99.90
13205;DHT22;6667;52.634;9.226;2022-07-11T21:25:40;17.10;99.90
13205;DHT22;6667;52.634;9.226;2022-07-11T21:28:08;17.00;99.90
13205;DHT22;6667;52.634;9.226;2022-07-11T21:30:35;17.00;99.90
13205;DHT22;6667;52.634;9.226;2022-07-11T21:33:03;17.00;99.90
13205;DHT22;6667;52.634;9.226;2022-07-11T21:35:32;17.00;99.90
13205;DHT22;6667;52.634;9.226;2022-07-11T21:37:59;17.00;99.90
